Kaibeto, Arizona
Current Conditions -  °F | °C
As of 9:53 PM on Thursday 30 Oct 2014 (Local Time) from KPGA Reporting Station
Clear Clear  
Wind Chill: 59°   Ceiling: Unl
Heat Index: 59°   Visibility: 10mi
Dew Point: 22°   Wind: 0mph
Humidity: 24%   Direction: NA
Pressure: 30.17"   Gusts: NA
Location:  36.4905°N, 111.31°W
Report Text: KPGA 310353Z AUTO 00000KT 10SM CLR 15/M06 A3017 RMK AO2 SLP182 T01501056
Loading
Personal Weather Stations






























Interactive Weather Map
Tropical Storm Tracking
New forecast layout! Learn more

10-Day Weather Forecast

Advertisements
Track Severe Weather on mobile